Time;durP1;ratioP1;P1;durP2;ratioP2;P2;SDS_P1;SDS_P2;PMS_P1;PMS_P2;Temp;Humidity;BMP_temperature;BMP_pressure;BME280_temperature;BME280_humidity;BME280_pressure;Samples;Min_cycle;Max_cycle;Signal;HPM_P1;HPM_P2
2022/05/18 00:02:11;;;;;;;17.20;15.38;;;;;;;14.54;nan;101685.00;5033203;28;20469;-49
2022/05/18 00:04:36;;;;;;;20.25;16.35;;;;;;;14.58;nan;101697.22;5033339;28;20044;-50
2022/05/18 00:07:02;;;;;;;18.30;16.35;;;;;;;14.33;nan;101667.22;5033420;28;20123;-49
2022/05/18 00:09:28;;;;;;;18.50;15.65;;;;;;;14.52;nan;101695.66;5033285;28;20052;-49
2022/05/18 00:11:53;;;;;;;20.33;15.50;;;;;;;14.49;nan;101697.53;5033308;28;20412;-51
2022/05/18 00:14:18;;;;;;;17.63;15.57;;;;;;;14.45;nan;101693.25;5033037;28;20075;-49
2022/05/18 00:16:45;;;;;;;21.00;17.42;;;;;;;14.40;nan;101687.25;5033091;28;20093;-49
2022/05/18 00:19:11;;;;;;;19.20;17.23;;;;;;;14.17;nan;101653.59;5033115;28;20033;-51
2022/05/18 00:21:37;;;;;;;19.88;17.60;;;;;;;14.41;nan;101702.25;5033265;28;20500;-50
2022/05/18 00:24:04;;;;;;;22.63;17.95;;;;;;;14.32;nan;101695.47;5032843;28;20045;-50
2022/05/18 00:26:30;;;;;;;22.35;18.88;;;;;;;14.13;nan;101669.66;5032964;28;20056;-55
2022/05/18 00:28:55;;;;;;;25.45;18.98;;;;;;;14.10;nan;101655.59;5032787;28;20025;-51
2022/05/18 00:31:20;;;;;;;21.45;18.63;;;;;;;14.07;nan;101660.09;5048094;28;20029;-51
2022/05/18 00:33:47;;;;;;;23.73;18.73;;;;;;;14.31;nan;101699.00;5031754;28;20060;-54
2022/05/18 00:36:12;;;;;;;22.83;20.02;;;;;;;14.33;nan;101706.94;5048149;28;20026;-49
2022/05/18 00:38:38;;;;;;;21.80;19.15;;;;;;;13.99;nan;101646.28;5031469;28;20029;-51
2022/05/18 00:41:03;;;;;;;27.08;20.35;;;;;;;14.08;nan;101661.84;5032678;28;20037;-48
2022/05/18 00:43:28;;;;;;;24.55;19.15;;;;;;;14.34;nan;101704.22;5032601;28;20044;-50
2022/05/18 00:45:54;;;;;;;22.53;19.33;;;;;;;14.05;nan;101652.22;5032586;28;20109;-52
2022/05/18 00:48:19;;;;;;;25.17;21.20;;;;;;;14.17;nan;101668.63;5032825;28;20283;-51
2022/05/18 00:50:45;;;;;;;29.23;20.08;;;;;;;14.34;nan;101703.38;5032367;28;20037;-50
2022/05/18 00:53:37;;;;;;;25.67;19.73;;;;;;;14.05;nan;101648.72;5048303;28;20034;-52
2022/05/18 00:56:11;;;;;;;24.65;21.48;;;;;;;14.35;nan;101692.72;5032600;28;20057;-51
2022/05/18 00:58:44;;;;;;;25.83;21.17;;;;;;;14.38;nan;101705.00;5032356;28;20155;-48
2022/05/18 01:01:10;;;;;;;25.80;21.70;;;;;;;14.29;nan;101695.56;5031309;28;20025;-49
2022/05/18 01:03:40;;;;;;;25.15;21.48;;;;;;;14.14;nan;101658.13;5048031;28;20030;-50
2022/05/18 01:06:31;;;;;;;26.58;20.00;;;;;;;14.02;nan;101638.22;5032418;28;20034;-51
2022/05/18 01:09:09;;;;;;;25.23;22.52;;;;;;;14.22;nan;101666.66;5030922;28;20033;-48
2022/05/18 01:11:36;;;;;;;24.85;21.08;;;;;;;14.34;nan;101698.06;5047576;28;20040;-49
2022/05/18 01:14:03;;;;;;;26.02;22.45;;;;;;;14.04;nan;101639.03;5032170;28;20404;-46
2022/05/18 01:16:29;;;;;;;23.80;21.20;;;;;;;14.32;nan;101689.28;5047541;28;20040;-50
2022/05/18 01:18:56;;;;;;;25.45;20.35;;;;;;;14.15;nan;101663.38;5032348;28;20037;-49
2022/05/18 01:21:25;;;;;;;25.80;20.13;;;;;;;13.93;nan;101636.75;5047573;28;20033;-50
2022/05/18 01:23:54;;;;;;;24.52;21.88;;;;;;;13.91;nan;101632.44;5032341;28;20030;-52
2022/05/18 01:26:39;;;;;;;24.38;20.42;;;;;;;14.24;nan;101686.91;5032236;28;20042;-49
2022/05/18 01:29:05;;;;;;;27.15;21.63;;;;;;;14.22;nan;101683.44;5047483;28;20091;-53
2022/05/18 01:31:54;;;;;;;26.05;21.40;;;;;;;14.22;nan;101687.84;5031900;28;20041;-55
2022/05/18 01:34:23;;;;;;;28.20;22.90;;;;;;;14.12;nan;101667.91;5031912;28;20034;-49
2022/05/18 01:36:49;;;;;;;28.25;23.10;;;;;;;13.91;nan;101633.31;5032193;28;20030;-47
2022/05/18 01:39:26;;;;;;;26.42;23.15;;;;;;;14.23;nan;101681.66;5032112;28;20116;-50
2022/05/18 01:42:03;;;;;;;32.92;25.13;;;;;;;13.88;nan;101629.91;5032058;28;20484;-52
2022/05/18 01:44:29;;;;;;;29.92;24.35;;;;;;;13.89;nan;101627.19;5030741;28;20461;-51
2022/05/18 01:46:54;;;;;;;27.92;24.08;;;;;;;14.22;nan;101679.91;5032085;28;20072;-49
2022/05/18 01:49:20;;;;;;;28.77;23.70;;;;;;;14.12;nan;101663.50;5031954;28;20045;-47
2022/05/18 01:51:47;;;;;;;31.35;24.50;;;;;;;14.20;nan;101685.28;5030896;28;20040;-48
2022/05/18 01:54:13;;;;;;;30.08;25.52;;;;;;;14.18;nan;101673.88;5030689;28;20040;-49
2022/05/18 01:56:39;;;;;;;29.00;25.88;;;;;;;14.18;nan;101681.81;5030380;28;20052;-51
2022/05/18 01:59:05;;;;;;;28.88;25.55;;;;;;;13.83;nan;101616.84;5047222;28;20037;-48
2022/05/18 02:01:30;;;;;;;32.95;27.60;;;;;;;13.78;nan;101605.50;5032577;28;20519;-52
2022/05/18 02:03:56;;;;;;;36.17;28.40;;;;;;;13.95;nan;101637.56;5034470;28;20061;-51
2022/05/18 02:06:22;;;;;;;35.25;29.40;;;;;;;13.57;nan;101566.56;5051009;28;20477;-49
2022/05/18 02:08:47;;;;;;;33.85;29.55;;;;;;;13.93;nan;101625.31;5035591;28;20037;-52
2022/05/18 02:11:14;;;;;;;38.92;30.95;;;;;;;13.89;nan;101619.25;5035583;28;20477;-49
2022/05/18 02:13:40;;;;;;;35.28;31.55;;;;;;;14.16;nan;101658.94;5017690;28;20083;-53
2022/05/18 02:16:06;;;;;;;36.38;32.47;;;;;;;14.14;nan;101658.13;5035678;28;20080;-50
2022/05/18 02:18:31;;;;;;;38.88;32.60;;;;;;;13.91;nan;101613.91;5050954;28;20088;-49
2022/05/18 02:20:57;;;;;;;39.13;34.90;;;;;;;13.84;nan;101605.31;5035377;28;20503;-48
2022/05/18 02:23:22;;;;;;;38.35;33.92;;;;;;;14.30;nan;101664.66;5035233;28;20069;-53
2022/05/18 02:25:47;;;;;;;43.70;35.33;;;;;;;14.33;nan;101659.28;5034866;28;20038;-52
2022/05/18 02:28:12;;;;;;;37.70;33.72;;;;;;;14.35;nan;101668.91;5033872;28;20033;-50
2022/05/18 02:30:38;;;;;;;38.47;33.45;;;;;;;14.34;nan;101664.50;5035436;28;20055;-50
2022/05/18 02:33:03;;;;;;;38.50;32.88;;;;;;;14.15;nan;101633.41;5035311;28;20029;-48
2022/05/18 02:35:29;;;;;;;39.83;34.63;;;;;;;14.39;nan;101678.44;5035236;28;20391;-50
2022/05/18 02:37:54;;;;;;;42.65;34.50;;;;;;;14.32;nan;101665.44;5035420;28;20038;-48
2022/05/18 02:40:20;;;;;;;40.22;35.45;;;;;;;14.53;nan;101691.22;5050398;28;20491;-53
2022/05/18 02:42:45;;;;;;;40.35;33.63;;;;;;;14.51;nan;101701.88;5034940;28;20033;-49
2022/05/18 02:45:11;;;;;;;38.65;31.27;;;;;;;14.49;nan;101697.53;5034948;28;20075;-50
2022/05/18 02:47:36;;;;;;;42.15;32.97;;;;;;;14.20;nan;101650.84;5050485;28;20415;-54
2022/05/18 02:50:01;;;;;;;39.17;32.50;;;;;;;14.53;nan;101709.78;5050307;28;20040;-54
2022/05/18 02:52:27;;;;;;;41.88;35.88;;;;;;;14.23;nan;101648.09;5034675;28;20041;-50
2022/05/18 02:57:36;;;;;;;38.70;34.42;;;;;;;14.59;nan;101714.88;5048057;28;20107;-50
2022/05/18 03:00:03;;;;;;;38.97;34.70;;;;;;;14.28;nan;101650.56;5034646;28;20041;-52
2022/05/18 03:02:28;;;;;;;38.25;33.25;;;;;;;14.62;nan;101709.47;5049759;28;20026;-49
2022/05/18 03:04:53;;;;;;;39.38;34.15;;;;;;;14.65;nan;101701.41;5034379;28;20037;-53
2022/05/18 03:07:19;;;;;;;39.08;33.83;;;;;;;14.51;nan;101679.81;5033211;28;20037;-48
2022/05/18 03:09:44;;;;;;;39.17;32.95;;;;;;;14.69;nan;101703.00;5034224;28;20046;-49
2022/05/18 03:12:10;;;;;;;37.53;31.77;;;;;;;14.64;nan;101708.47;5034241;28;20392;-50
2022/05/18 03:14:35;;;;;;;37.67;32.78;;;;;;;14.72;nan;101726.75;5034103;28;20040;-47
2022/05/18 03:17:01;;;;;;;37.92;33.00;;;;;;;14.71;nan;101730.31;5034319;28;20054;-52
2022/05/18 03:19:26;;;;;;;36.00;31.85;;;;;;;14.21;nan;101628.75;5032980;28;20044;-50
2022/05/18 03:24:36;;;;;;;38.92;32.83;;;;;;;14.89;nan;101736.72;5033895;28;20056;-49
2022/05/18 03:27:02;;;;;;;34.40;29.10;;;;;;;14.63;nan;101689.97;5049139;28;20058;-49
2022/05/18 03:29:28;;;;;;;32.70;27.20;;;;;;;15.06;nan;101752.94;5033961;28;20035;-51
2022/05/18 03:31:53;;;;;;;31.77;27.10;;;;;;;15.10;nan;101730.66;5034296;28;20038;-51
2022/05/18 03:34:18;;;;;;;29.98;26.70;;;;;;;15.16;nan;101749.00;5033777;28;20412;-49
2022/05/18 03:36:44;;;;;;;29.83;26.15;;;;;;;14.87;nan;101683.78;5033813;28;20125;-52
2022/05/18 03:39:10;;;;;;;28.23;23.73;;;;;;;15.28;nan;101748.56;5034012;28;20462;-48
2022/05/18 03:41:35;;;;;;;25.42;22.73;;;;;;;15.03;nan;101710.63;5033969;28;20116;-51
2022/05/18 03:44:04;;;;;;;28.92;23.77;;;;;;;15.14;nan;101719.91;5033694;28;20125;-51
2022/05/18 03:46:30;;;;;;;29.23;22.33;;;;;;;14.97;nan;101687.81;5033927;28;20116;-51
2022/05/18 03:48:56;;;;;;;26.23;22.60;;;;;;;15.11;nan;101717.38;5033665;28;20128;-52
2022/05/18 03:51:21;;;;;;;25.75;22.60;;;;;;;15.05;nan;101698.16;5033325;28;20045;-53
2022/05/18 03:53:47;;;;;;;28.90;22.60;;;;;;;15.30;nan;101740.53;5049104;28;20049;-48
2022/05/18 03:56:13;;;;;;;26.08;23.27;;;;;;;15.07;nan;101701.59;5049099;28;20025;-51
2022/05/18 03:58:38;;;;;;;25.77;22.10;;;;;;;15.13;nan;101702.25;5032315;28;20392;-52
2022/05/18 04:01:08;;;;;;;27.15;22.20;;;;;;;15.19;nan;101695.84;5049003;28;20224;-51
2022/05/18 04:03:35;;;;;;;24.00;21.50;;;;;;;15.55;nan;101759.94;5033346;28;20389;-53
2022/05/18 04:06:00;;;;;;;33.75;22.38;;;;;;;15.62;nan;101759.63;5033265;28;20063;-50
2022/05/18 04:08:26;;;;;;;25.45;21.35;;;;;;;15.66;nan;101755.94;5033401;28;20124;-49
2022/05/18 04:10:54;;;;;;;29.60;22.42;;;;;;;15.71;nan;101748.66;5033427;28;20045;-52
2022/05/18 04:13:21;;;;;;;26.13;21.40;;;;;;;15.82;nan;101763.31;5031979;28;20388;-51
2022/05/18 04:15:47;;;;;;;27.77;21.23;;;;;;;15.56;nan;101704.16;5033283;28;20036;-51
2022/05/18 04:18:12;;;;;;;26.67;21.58;;;;;;;15.94;nan;101769.00;5033197;28;20033;-50
2022/05/18 04:20:38;;;;;;;28.48;20.50;;;;;;;15.71;nan;101702.69;5032803;28;20049;-54
2022/05/18 04:23:04;;;;;;;26.08;20.38;;;;;;;16.09;nan;101760.41;5048578;28;20033;-53
2022/05/18 04:25:29;;;;;;;26.15;20.75;;;;;;;16.15;nan;101770.78;5031125;28;20083;-48
2022/05/18 04:27:55;;;;;;;26.63;20.70;;;;;;;16.12;nan;101762.06;5032946;28;20049;-48
2022/05/18 04:30:24;;;;;;;26.55;20.23;;;;;;;16.05;nan;101740.22;5032894;28;20053;-51
2022/05/18 04:32:49;;;;;;;25.83;21.15;;;;;;;16.05;nan;101731.41;5031642;28;20040;-50
2022/05/18 04:35:17;;;;;;;26.10;20.40;;;;;;;16.34;nan;101787.69;5032637;28;20045;-56
2022/05/18 04:37:42;;;;;;;23.27;19.50;;;;;;;16.38;nan;101782.25;5033058;28;20032;-53
2022/05/18 04:40:09;;;;;;;27.10;20.65;;;;;;;16.42;nan;101789.19;5031622;28;20029;-52
2022/05/18 04:42:34;;;;;;;25.98;20.15;;;;;;;16.20;nan;101752.88;5031564;28;20021;-48
2022/05/18 04:45:00;;;;;;;24.60;20.77;;;;;;;16.42;nan;101790.06;5031446;28;20044;-50
2022/05/18 04:47:26;;;;;;;21.90;19.55;;;;;;;16.45;nan;101778.44;5032554;28;20033;-49
2022/05/18 04:49:52;;;;;;;28.05;20.85;;;;;;;16.43;nan;101767.88;5031304;28;20370;-52
2022/05/18 04:52:18;;;;;;;28.17;19.80;;;;;;;16.67;nan;101795.22;5032677;28;20170;-51
2022/05/18 04:54:44;;;;;;;26.75;20.52;;;;;;;16.73;nan;101808.25;5032676;28;20064;-47
2022/05/18 04:57:09;;;;;;;22.95;19.20;;;;;;;16.53;nan;101758.56;5047925;28;20115;-49
2022/05/18 04:59:34;;;;;;;21.48;19.20;;;;;;;16.87;nan;101811.19;5031295;28;20047;-50
2022/05/18 05:02:00;;;;;;;23.95;19.60;;;;;;;16.79;nan;101790.25;5047826;28;20056;-50
2022/05/18 05:04:25;;;;;;;22.67;19.33;;;;;;;16.91;nan;101804.81;5047423;28;20125;-50
2022/05/18 05:06:50;;;;;;;23.88;20.38;;;;;;;16.98;nan;101806.28;5032227;28;20033;-51
2022/05/18 05:09:16;;;;;;;22.67;19.70;;;;;;;17.06;nan;101812.13;5032485;28;20037;-50
2022/05/18 05:11:42;;;;;;;29.20;20.92;;;;;;;17.11;nan;101815.44;5031057;28;20099;-48
2022/05/18 05:14:08;;;;;;;23.95;20.65;;;;;;;16.85;nan;101770.50;5032407;28;20040;-50
2022/05/18 05:16:33;;;;;;;26.25;19.60;;;;;;;17.25;nan;101817.53;5032183;28;20042;-50
2022/05/18 05:18:59;;;;;;;23.95;18.92;;;;;;;17.33;nan;101826.03;5031874;28;20034;-51
2022/05/18 05:21:24;;;;;;;23.50;18.02;;;;;;;17.47;nan;101825.38;5031900;28;20040;-50
2022/05/18 05:23:49;;;;;;;21.00;17.80;;;;;;;17.30;nan;101784.44;5030549;28;20396;-50
2022/05/18 05:26:15;;;;;;;24.77;17.67;;;;;;;17.23;nan;101737.75;5031888;28;20046;-50
2022/05/18 05:28:41;;;;;;;20.88;16.23;;;;;;;17.65;nan;101788.19;5031734;28;20484;-53
2022/05/18 05:31:08;;;;;;;22.73;16.75;;;;;;;17.76;nan;101796.53;5031644;28;20034;-47
2022/05/18 05:33:35;;;;;;;17.77;15.98;;;;;;;18.19;nan;101848.63;5031581;28;20122;-52
2022/05/18 05:36:00;;;;;;;19.88;16.42;;;;;;;18.24;nan;101851.09;5032422;28;20056;-51
2022/05/18 05:38:26;;;;;;;19.77;15.77;;;;;;;18.24;nan;101853.75;5034727;28;20121;-50
2022/05/18 05:40:51;;;;;;;18.63;16.05;;;;;;;18.21;nan;101849.44;5034855;28;20029;-50
2022/05/18 05:43:17;;;;;;;20.70;15.48;;;;;;;18.20;nan;101860.16;5035480;28;20439;-49
2022/05/18 05:45:42;;;;;;;21.08;15.40;;;;;;;18.19;nan;101851.28;5035436;28;20480;-49
2022/05/18 05:48:09;;;;;;;17.58;14.30;;;;;;;17.89;nan;101802.16;5034307;28;20033;-53
2022/05/18 05:50:35;;;;;;;21.63;15.85;;;;;;;18.24;nan;101862.56;5034513;28;20440;-48
2022/05/18 05:53:00;;;;;;;14.85;13.23;;;;;;;18.16;nan;101846.09;5034429;28;20069;-53
2022/05/18 05:55:27;;;;;;;17.38;13.60;;;;;;;18.29;nan;101855.25;5034228;28;20361;-50
2022/05/18 05:57:54;;;;;;;15.60;12.07;;;;;;;18.39;nan;101852.97;5034363;28;20072;-53
2022/05/18 06:00:20;;;;;;;20.00;11.15;;;;;;;18.60;nan;101864.44;5035249;28;20038;-53
2022/05/18 06:02:45;;;;;;;12.70;10.02;;;;;;;18.74;nan;101852.13;5034007;28;20025;-51
2022/05/18 06:05:12;;;;;;;11.80;9.60;;;;;;;18.89;nan;101863.84;5050415;28;20037;-50
2022/05/18 06:07:37;;;;;;;9.15;8.27;;;;;;;19.00;nan;101872.19;5050554;28;20033;-49
2022/05/18 06:10:03;;;;;;;11.18;9.02;;;;;;;19.00;nan;101878.34;5035681;28;20064;-46
2022/05/18 06:12:28;;;;;;;11.68;8.60;;;;;;;18.98;nan;101882.06;5035294;28;20041;-50
2022/05/18 06:14:53;;;;;;;9.90;8.85;;;;;;;18.87;nan;101873.72;5034922;28;20127;-50
2022/05/18 06:17:19;;;;;;;9.73;7.05;;;;;;;18.92;nan;101877.03;5050353;28;20037;-51
2022/05/18 06:19:44;;;;;;;12.45;8.20;;;;;;;18.71;nan;101846.94;5034951;28;20036;-52
2022/05/18 06:22:10;;;;;;;9.95;6.47;;;;;;;19.08;nan;101889.53;5034851;28;20591;-50
2022/05/18 06:24:36;;;;;;;9.55;6.00;;;;;;;19.14;nan;101904.38;5034067;28;20041;-48
2022/05/18 06:27:01;;;;;;;9.88;6.30;;;;;;;18.95;nan;101859.06;5034344;28;20037;-50
2022/05/18 06:29:27;;;;;;;9.73;6.90;;;;;;;19.34;nan;101920.22;5033215;28;20029;-51
2022/05/18 06:31:52;;;;;;;9.27;6.47;;;;;;;19.36;nan;101920.13;5034804;28;20116;-49
2022/05/18 06:34:21;;;;;;;9.75;5.80;;;;;;;19.46;nan;101929.44;5035004;28;20393;-50
2022/05/18 06:36:46;;;;;;;10.57;6.40;;;;;;;19.48;nan;101940.88;5034803;28;20034;-48
2022/05/18 06:39:11;;;;;;;7.63;6.88;;;;;;;19.25;nan;101901.13;5034871;28;20560;-54
2022/05/18 06:41:37;;;;;;;9.82;6.70;;;;;;;19.61;nan;101952.66;5049801;28;20029;-51
2022/05/18 06:44:04;;;;;;;9.82;6.50;;;;;;;19.40;nan;101911.94;5034610;28;20041;-51
2022/05/18 06:46:31;;;;;;;10.45;6.50;;;;;;;19.67;nan;101949.69;5034369;28;20100;-49
2022/05/18 06:48:57;;;;;;;9.25;7.32;;;;;;;19.47;nan;101907.09;5033561;28;20033;-51
2022/05/18 06:51:25;;;;;;;9.05;6.95;;;;;;;19.39;nan;101907.53;5049495;28;20033;-53
2022/05/18 06:53:52;;;;;;;12.57;7.78;;;;;;;19.67;nan;101967.50;5034148;28;20493;-56
2022/05/18 06:56:22;;;;;;;11.00;7.18;;;;;;;19.70;nan;101970.03;5034647;28;20179;-46
2022/05/18 06:58:48;;;;;;;8.80;6.15;;;;;;;19.65;nan;101973.78;5032637;28;20033;-48
2022/05/18 07:01:14;;;;;;;11.05;7.35;;;;;;;19.57;nan;101978.66;5032904;28;20086;-49
2022/05/18 07:03:39;;;;;;;9.40;6.30;;;;;;;19.61;nan;101974.03;5030793;28;20087;-49
2022/05/18 07:06:05;;;;;;;12.45;7.85;;;;;;;19.51;nan;101938.06;5034461;28;20503;-51
2022/05/18 07:08:31;;;;;;;11.52;7.53;;;;;;;19.70;nan;101973.56;5031267;28;20570;-52
2022/05/18 07:10:56;;;;;;;12.75;7.72;;;;;;;19.50;nan;101933.66;5031927;28;20171;-51
2022/05/18 07:13:21;;;;;;;11.68;8.55;;;;;;;19.58;nan;101960.84;5033335;28;20061;-48
2022/05/18 07:15:47;;;;;;;15.63;7.60;;;;;;;19.76;nan;101993.75;5033055;28;20079;-49
2022/05/18 07:18:13;;;;;;;13.40;7.90;;;;;;;19.74;nan;101972.44;5032486;28;20116;-50
2022/05/18 07:20:39;;;;;;;8.80;7.28;;;;;;;19.89;nan;101995.69;5033676;28;20046;-54
2022/05/18 07:23:04;;;;;;;12.25;7.78;;;;;;;19.94;nan;101968.69;5033702;28;20040;-49
2022/05/18 07:25:29;;;;;;;16.33;8.73;;;;;;;20.21;nan;102007.31;5030430;28;20073;-48
2022/05/18 07:27:55;;;;;;;10.27;8.48;;;;;;;20.23;nan;101969.81;5047683;28;20053;-51
2022/05/18 07:30:20;;;;;;;14.95;8.60;;;;;;;20.79;nan;102002.31;5048338;28;20044;-50
2022/05/18 07:32:45;;;;;;;14.00;8.85;;;;;;;21.02;nan;102007.22;5033019;28;20038;-50
2022/05/18 07:35:11;;;;;;;12.75;8.85;;;;;;;21.66;nan;102028.44;5032891;28;20048;-48
2022/05/18 07:37:36;;;;;;;12.40;9.38;;;;;;;21.85;nan;102001.41;5032850;28;20412;-47
2022/05/18 07:40:03;;;;;;;10.55;9.45;;;;;;;22.58;nan;102055.88;5032241;28;20045;-49
2022/05/18 07:42:28;;;;;;;13.00;9.95;;;;;;;22.96;nan;102051.63;5032342;28;20033;-47
2022/05/18 07:44:53;;;;;;;12.00;8.80;;;;;;;23.02;nan;102023.53;5032626;28;20422;-49
2022/05/18 07:47:20;;;;;;;12.80;9.43;;;;;;;22.53;nan;101973.00;5031233;28;20030;-50
2022/05/18 07:49:45;;;;;;;15.07;10.13;;;;;;;23.20;nan;102063.47;5032035;28;20044;-51
2022/05/18 07:52:11;;;;;;;14.40;10.60;;;;;;;23.41;nan;102077.31;5047809;28;20037;-50
2022/05/18 07:54:37;;;;;;;13.35;9.75;;;;;;;23.38;nan;102038.06;5031169;28;20080;-48
2022/05/18 07:57:07;;;;;;;12.43;9.68;;;;;;;23.87;nan;102093.91;5031997;28;20128;-53
2022/05/18 07:59:32;;;;;;;11.47;9.80;;;;;;;23.97;nan;102081.53;5030853;28;20469;-50
2022/05/18 08:01:58;;;;;;;14.75;10.52;;;;;;;23.73;nan;102048.28;5031973;28;20302;-50
2022/05/18 08:04:23;;;;;;;12.95;9.82;;;;;;;23.86;nan;102102.94;5032128;28;20037;-53
2022/05/18 08:06:48;;;;;;;13.75;9.38;;;;;;;23.88;nan;102085.72;5031801;28;20042;-53
2022/05/18 08:09:15;;;;;;;12.90;10.80;;;;;;;23.45;nan;102090.47;5030546;28;20037;-49
2022/05/18 08:17:09;;;;;;;17.33;10.18;;;;;;;24.06;nan;102111.38;5031592;28;20056;-50
2022/05/18 08:19:41;;;;;;;14.68;10.73;;;;;;;23.83;100.00;102057.44;5149400;27;20146;-49
2022/05/18 08:22:06;;;;;;;15.18;11.10;;;;;;;24.07;100.00;102096.97;5128836;28;20055;-52
2022/05/18 08:24:31;;;;;;;15.40;11.23;;;;;;;24.33;100.00;102124.78;5111030;28;20059;-47
2022/05/18 08:26:57;;;;;;;21.02;11.35;;;;;;;24.43;100.00;102107.00;5128937;28;20059;-47
2022/05/18 08:29:22;;;;;;;16.45;11.70;;;;;;;24.46;100.00;102124.78;5128999;28;20112;-47
2022/05/18 08:31:48;;;;;;;13.73;10.57;;;;;;;24.67;100.00;102127.78;5110241;28;20440;-51
2022/05/18 08:34:14;;;;;;;14.20;10.65;;;;;;;24.57;100.00;102125.75;5128586;28;20057;-46
2022/05/18 08:36:39;;;;;;;15.32;10.95;;;;;;;23.95;100.00;102135.47;5127255;28;20470;-48
2022/05/18 08:39:04;;;;;;;13.75;11.05;;;;;;;24.01;100.00;102083.06;5128118;28;20050;-50
2022/05/18 08:41:39;;;;;;;12.27;10.65;;;;;;;24.21;100.00;102050.28;5128005;28;20045;-52
2022/05/18 08:44:07;;;;;;;16.90;11.15;;;;;;;24.05;100.00;102073.84;5128591;28;20512;-51
2022/05/18 08:46:44;;;;;;;15.30;10.82;;;;;;;24.19;100.00;102080.97;5128668;28;20054;-50
2022/05/18 08:49:20;;;;;;;14.18;11.27;;;;;;;23.22;100.00;101986.31;5129522;28;20023;-52
2022/05/18 08:52:03;;;;;;;14.73;10.75;;;;;;;23.79;100.00;102139.28;5111495;28;20027;-48
2022/05/18 08:54:35;;;;;;;14.95;11.95;;;;;;;24.42;100.00;102134.03;5129453;28;20034;-52
2022/05/18 08:57:04;;;;;;;13.23;11.35;;;;;;;24.29;100.00;102127.78;5129506;28;20478;-53
2022/05/18 08:59:34;;;;;;;11.98;10.73;;;;;;;24.40;100.00;102134.13;5111222;28;20090;-52
2022/05/18 09:02:04;;;;;;;14.32;11.55;;;;;;;24.44;100.00;102110.56;5110967;28;20474;-50
2022/05/18 09:04:57;;;;;;;11.40;8.88;;;;;;;25.00;100.00;102137.03;5111144;28;20031;-51
2022/05/18 09:07:27;;;;;;;14.27;9.95;;;;;;;25.25;100.00;102146.03;5100696;28;20047;-50
2022/05/18 09:10:15;;;;;;;12.93;10.15;;;;;;;25.29;100.00;102148.38;5111094;28;20032;-51
2022/05/18 09:12:44;;;;;;;13.90;10.30;;;;;;;25.02;100.00;102104.59;5113555;28;20493;-50
2022/05/18 09:15:13;;;;;;;11.95;9.57;;;;;;;25.46;100.00;102157.91;5128854;28;20107;-48
2022/05/18 09:18:20;;;;;;;13.73;9.38;;;;;;;25.14;100.00;102120.72;5129021;28;20097;-51
2022/05/18 09:20:47;;;;;;;10.88;8.43;;;;;;;25.66;100.00;102150.09;5025433;28;20029;-51
2022/05/18 09:23:35;;;;;;;10.20;8.30;;;;;;;26.21;100.00;102149.47;5025649;28;20076;-49
2022/05/18 09:26:11;;;;;;;8.38;7.50;;;;;;;26.22;100.00;102153.91;5091626;28;20144;-51
2022/05/18 09:29:09;;;;;;;9.48;7.50;;;;;;;26.16;100.00;102161.59;5110581;28;20122;-50
2022/05/18 09:31:52;;;;;;;10.02;7.22;;;;;;;25.61;100.00;102156.81;5097024;28;20034;-49
2022/05/18 09:34:45;;;;;;;6.55;5.88;;;;;;;25.35;100.00;102142.53;5115026;28;20020;-50
2022/05/18 09:37:23;;;;;;;9.32;6.13;;;;;;;25.69;100.00;102157.94;5096824;28;20112;-53
2022/05/18 09:39:57;;;;;;;7.18;5.15;;;;;;;25.89;100.00;102152.91;5115548;28;20035;-51
2022/05/18 09:42:26;;;;;;;6.85;5.40;;;;;;;25.59;100.00;102113.78;5114825;28;20528;-52
2022/05/18 09:44:59;;;;;;;7.07;4.70;;;;;;;25.90;100.00;102174.34;5096693;28;20156;-48
2022/05/18 09:47:27;;;;;;;7.30;5.03;;;;;;;25.52;100.00;102103.56;5114665;28;20027;-51
2022/05/18 09:49:55;;;;;;;7.05;4.00;;;;;;;25.84;100.00;102130.78;5114594;28;20036;-50
2022/05/18 09:52:24;;;;;;;6.55;3.97;;;;;;;26.32;100.00;102177.50;5114327;28;20156;-49
2022/05/18 09:54:52;;;;;;;8.60;3.70;;;;;;;26.26;100.00;102125.72;5096558;28;20032;-53
2022/05/18 09:57:25;;;;;;;3.40;3.10;;;;;;;27.24;100.00;102176.34;5096637;28;20100;-55
2022/05/18 09:59:57;;;;;;;5.70;3.97;;;;;;;27.45;100.00;102183.72;5096148;28;20485;-54
2022/05/18 10:08:26;;;;;;;5.40;3.85;;;;;;;28.66;100.00;102176.09;5114579;28;20074;-52
2022/05/18 10:11:02;;;;;;;5.45;3.30;;;;;;;28.07;100.00;102119.81;5079463;28;20036;-49
2022/05/18 10:13:32;;;;;;;6.95;3.78;;;;;;;29.10;100.00;102189.25;5114418;28;20505;-49
2022/05/18 10:16:04;;;;;;;8.00;4.88;;;;;;;28.54;100.00;102186.13;5114290;28;20088;-51
2022/05/18 10:18:43;;;;;;;7.13;4.68;;;;;;;27.18;100.00;102194.91;5095934;28;20047;-49
2022/05/18 10:21:18;;;;;;;6.82;4.40;;;;;;;26.42;100.00;102182.03;5114063;28;20035;-50
2022/05/18 10:24:01;;;;;;;5.53;4.15;;;;;;;25.11;100.00;102174.84;5114026;28;20131;-47
2022/05/18 10:26:30;;;;;;;7.93;4.43;;;;;;;24.71;100.00;102170.53;5114075;28;20031;-52
2022/05/18 10:29:15;;;;;;;5.82;4.10;;;;;;;24.54;100.00;102171.75;5114234;28;20035;-51
2022/05/18 10:31:46;;;;;;;6.90;3.88;;;;;;;24.19;100.00;102119.50;5078222;28;20063;-47
2022/05/18 10:34:28;;;;;;;5.60;4.30;;;;;;;23.91;100.00;102168.03;5095638;28;20035;-48
2022/05/18 10:36:56;;;;;;;5.72;4.03;;;;;;;23.95;100.00;102121.16;5095363;28;20444;-51
2022/05/18 10:39:48;;;;;;;7.15;3.05;;;;;;;24.10;100.00;102171.25;5094852;28;20081;-52
2022/05/18 10:42:25;;;;;;;4.57;3.53;;;;;;;24.14;100.00;102169.22;5107787;28;20047;-51
2022/05/18 10:44:53;;;;;;;6.20;3.88;;;;;;;23.74;100.00;102122.59;5113286;28;20038;-54
2022/05/18 10:47:29;;;;;;;3.97;3.00;;;;;;;24.08;100.00;102190.13;5095041;28;20024;-48
2022/05/18 10:50:23;;;;;;;6.68;3.78;;;;;;;24.59;100.00;102183.03;5113416;28;20024;-50
2022/05/18 10:52:49;;;;;;;5.82;3.95;;;;;;;24.00;100.00;102125.25;5095286;28;20038;-51
2022/05/18 10:55:22;;;;;;;5.82;4.35;;;;;;;24.15;100.00;102187.94;5095079;28;20063;-53
2022/05/18 10:58:07;;;;;;;7.57;4.55;;;;;;;23.82;100.00;102203.59;5113150;28;20035;-51
2022/05/18 11:00:54;;;;;;;8.55;4.60;;;;;;;23.14;100.00;102133.72;5094754;28;20063;-50
2022/05/18 11:03:36;;;;;;;6.65;4.75;;;;;;;23.11;100.00;102203.72;5113150;28;20028;-54
2022/05/18 11:06:07;;;;;;;6.35;3.70;;;;;;;23.70;100.00;102197.19;5094776;28;20040;-51
2022/05/18 11:08:32;;;;;;;6.38;4.07;;;;;;;24.22;100.00;102191.06;5113319;28;20520;-51
2022/05/18 11:11:07;;;;;;;5.65;3.15;;;;;;;25.23;100.00;102194.63;5094356;28;20036;-51
2022/05/18 11:13:54;;;;;;;7.70;3.58;;;;;;;25.64;100.00;102184.41;5112324;28;20100;-51
2022/05/18 11:16:46;;;;;;;4.10;2.88;;;;;;;25.82;100.00;102186.72;5077881;28;20111;-46
2022/05/18 11:19:37;;;;;;;6.05;3.63;;;;;;;26.20;100.00;102196.34;5112493;28;20574;-49
2022/05/18 11:22:34;;;;;;;4.82;3.13;;;;;;;26.85;100.00;102171.47;5101124;28;20075;-50
2022/05/18 11:25:10;;;;;;;5.32;3.15;;;;;;;26.80;100.00;102141.25;5112844;28;20041;-50
2022/05/18 11:27:35;;;;;;;4.65;3.30;;;;;;;27.32;100.00;102200.91;5094457;28;20034;-52
2022/05/18 11:30:10;;;;;;;7.75;3.15;;;;;;;27.63;100.00;102191.19;5112629;28;20024;-51
2022/05/18 11:33:00;;;;;;;5.68;3.45;;;;;;;27.23;100.00;102201.66;5094490;28;20509;-47
2022/05/18 11:35:57;;;;;;;5.20;3.78;;;;;;;27.47;100.00;102195.25;5112757;28;20042;-55
2022/05/18 11:38:45;;;;;;;5.78;4.03;;;;;;;27.56;100.00;102192.66;5094477;28;20115;-51
2022/05/18 11:41:19;;;;;;;6.38;3.55;;;;;;;27.82;100.00;102194.06;5112501;28;20035;-51
2022/05/18 11:44:16;;;;;;;5.32;3.50;;;;;;;28.06;100.00;102174.06;5094530;28;20096;-48
2022/05/18 11:47:09;;;;;;;6.13;3.63;;;;;;;27.98;100.00;102188.22;5094691;28;20487;-47
2022/05/18 11:49:42;;;;;;;5.63;3.05;;;;;;;28.07;100.00;102133.34;5112307;28;20402;-51
2022/05/18 11:52:20;;;;;;;5.82;3.50;;;;;;;28.13;100.00;102192.38;5112305;28;20110;-49